sensor_id;sensor_type;location;lat;lon;timestamp;P1;durP1;ratioP1;P2;durP2;ratioP2
4756;SDS011;2392;52.578;13.426;2023-02-22T00:01:08;20.70;;;4.10;;
4756;SDS011;2392;52.578;13.426;2023-02-22T00:03:49;22.60;;;4.07;;
4756;SDS011;2392;52.578;13.426;2023-02-22T00:06:17;16.10;;;3.73;;
4756;SDS011;2392;52.578;13.426;2023-02-22T00:08:46;16.77;;;3.80;;
4756;SDS011;2392;52.578;13.426;2023-02-22T00:11:15;19.93;;;4.50;;
4756;SDS011;2392;52.578;13.426;2023-02-22T00:13:44;12.70;;;3.73;;
4756;SDS011;2392;52.578;13.426;2023-02-22T00:16:15;12.83;;;3.60;;
4756;SDS011;2392;52.578;13.426;2023-02-22T00:18:43;11.33;;;3.23;;
4756;SDS011;2392;52.578;13.426;2023-02-22T00:21:10;15.17;;;4.30;;
4756;SDS011;2392;52.578;13.426;2023-02-22T00:23:39;20.80;;;3.40;;
4756;SDS011;2392;52.578;13.426;2023-02-22T00:26:11;18.23;;;3.77;;
4756;SDS011;2392;52.578;13.426;2023-02-22T00:28:45;21.40;;;5.73;;
4756;SDS011;2392;52.578;13.426;2023-02-22T00:31:13;16.23;;;3.70;;
4756;SDS011;2392;52.578;13.426;2023-02-22T00:33:41;19.33;;;4.10;;
4756;SDS011;2392;52.578;13.426;2023-02-22T00:36:08;13.40;;;3.57;;
4756;SDS011;2392;52.578;13.426;2023-02-22T00:38:37;17.57;;;3.20;;
4756;SDS011;2392;52.578;13.426;2023-02-22T00:41:04;17.20;;;4.80;;
4756;SDS011;2392;52.578;13.426;2023-02-22T00:43:32;19.93;;;4.97;;
4756;SDS011;2392;52.578;13.426;2023-02-22T00:46:00;16.30;;;3.60;;
4756;SDS011;2392;52.578;13.426;2023-02-22T00:48:27;18.80;;;5.50;;
4756;SDS011;2392;52.578;13.426;2023-02-22T00:50:54;17.57;;;3.53;;
4756;SDS011;2392;52.578;13.426;2023-02-22T00:53:22;11.87;;;3.83;;
4756;SDS011;2392;52.578;13.426;2023-02-22T00:55:50;18.90;;;3.70;;
4756;SDS011;2392;52.578;13.426;2023-02-22T00:58:17;20.00;;;3.57;;
4756;SDS011;2392;52.578;13.426;2023-02-22T01:00:45;20.10;;;3.50;;
4756;SDS011;2392;52.578;13.426;2023-02-22T01:03:15;20.20;;;5.33;;
4756;SDS011;2392;52.578;13.426;2023-02-22T01:05:43;20.83;;;4.20;;
4756;SDS011;2392;52.578;13.426;2023-02-22T01:08:12;22.33;;;4.40;;
4756;SDS011;2392;52.578;13.426;2023-02-22T01:10:40;15.47;;;4.23;;
4756;SDS011;2392;52.578;13.426;2023-02-22T01:13:08;20.60;;;4.10;;
4756;SDS011;2392;52.578;13.426;2023-02-22T01:15:37;13.87;;;3.60;;
4756;SDS011;2392;52.578;13.426;2023-02-22T01:18:05;22.93;;;3.60;;
4756;SDS011;2392;52.578;13.426;2023-02-22T01:20:34;17.93;;;3.73;;
4756;SDS011;2392;52.578;13.426;2023-02-22T01:23:02;18.73;;;6.60;;
4756;SDS011;2392;52.578;13.426;2023-02-22T01:25:32;13.87;;;3.90;;
4756;SDS011;2392;52.578;13.426;2023-02-22T01:28:01;29.30;;;4.50;;
4756;SDS011;2392;52.578;13.426;2023-02-22T01:30:30;14.53;;;3.50;;
4756;SDS011;2392;52.578;13.426;2023-02-22T01:32:58;12.90;;;3.80;;
4756;SDS011;2392;52.578;13.426;2023-02-22T01:35:28;22.30;;;4.20;;
4756;SDS011;2392;52.578;13.426;2023-02-22T01:37:58;19.63;;;4.37;;
4756;SDS011;2392;52.578;13.426;2023-02-22T01:40:27;17.93;;;3.80;;
4756;SDS011;2392;52.578;13.426;2023-02-22T01:42:56;18.80;;;5.33;;
4756;SDS011;2392;52.578;13.426;2023-02-22T01:45:39;17.43;;;4.47;;
4756;SDS011;2392;52.578;13.426;2023-02-22T01:48:15;19.63;;;4.17;;
4756;SDS011;2392;52.578;13.426;2023-02-22T01:50:47;18.40;;;4.20;;
4756;SDS011;2392;52.578;13.426;2023-02-22T01:53:20;22.13;;;4.80;;
4756;SDS011;2392;52.578;13.426;2023-02-22T01:55:50;14.43;;;4.10;;
4756;SDS011;2392;52.578;13.426;2023-02-22T01:58:18;21.97;;;5.10;;
4756;SDS011;2392;52.578;13.426;2023-02-22T02:00:47;23.40;;;4.70;;
4756;SDS011;2392;52.578;13.426;2023-02-22T02:03:17;23.57;;;5.50;;
4756;SDS011;2392;52.578;13.426;2023-02-22T02:05:48;12.13;;;5.00;;
4756;SDS011;2392;52.578;13.426;2023-02-22T02:08:20;17.37;;;4.00;;
4756;SDS011;2392;52.578;13.426;2023-02-22T02:10:54;16.40;;;4.30;;
4756;SDS011;2392;52.578;13.426;2023-02-22T02:13:23;14.80;;;4.13;;
4756;SDS011;2392;52.578;13.426;2023-02-22T02:15:52;15.37;;;4.40;;
4756;SDS011;2392;52.578;13.426;2023-02-22T02:18:20;13.87;;;3.90;;
4756;SDS011;2392;52.578;13.426;2023-02-22T02:20:53;13.47;;;4.73;;
4756;SDS011;2392;52.578;13.426;2023-02-22T02:23:43;16.00;;;4.00;;
4756;SDS011;2392;52.578;13.426;2023-02-22T02:26:44;23.00;;;5.63;;
4756;SDS011;2392;52.578;13.426;2023-02-22T02:32:42;14.00;;;4.07;;
4756;SDS011;2392;52.578;13.426;2023-02-22T02:35:18;16.33;;;4.70;;
4756;SDS011;2392;52.578;13.426;2023-02-22T02:37:54;10.53;;;3.40;;
4756;SDS011;2392;52.578;13.426;2023-02-22T02:40:26;25.80;;;4.03;;
4756;SDS011;2392;52.578;13.426;2023-02-22T02:43:02;15.57;;;3.97;;
4756;SDS011;2392;52.578;13.426;2023-02-22T02:45:35;15.80;;;4.77;;
4756;SDS011;2392;52.578;13.426;2023-02-22T02:48:10;26.17;;;4.90;;
4756;SDS011;2392;52.578;13.426;2023-02-22T02:50:40;10.97;;;3.80;;
4756;SDS011;2392;52.578;13.426;2023-02-22T02:53:10;13.83;;;4.40;;
4756;SDS011;2392;52.578;13.426;2023-02-22T02:55:42;11.80;;;3.40;;
4756;SDS011;2392;52.578;13.426;2023-02-22T02:58:10;22.23;;;4.90;;
4756;SDS011;2392;52.578;13.426;2023-02-22T03:00:44;16.93;;;5.53;;
4756;SDS011;2392;52.578;13.426;2023-02-22T03:06:09;17.80;;;3.57;;
4756;SDS011;2392;52.578;13.426;2023-02-22T03:08:55;15.37;;;3.63;;
4756;SDS011;2392;52.578;13.426;2023-02-22T03:11:30;43.23;;;6.27;;
4756;SDS011;2392;52.578;13.426;2023-02-22T03:14:08;15.20;;;3.97;;
4756;SDS011;2392;52.578;13.426;2023-02-22T03:16:43;17.90;;;4.80;;
4756;SDS011;2392;52.578;13.426;2023-02-22T03:19:14;17.33;;;4.90;;
4756;SDS011;2392;52.578;13.426;2023-02-22T03:21:48;24.53;;;6.50;;
4756;SDS011;2392;52.578;13.426;2023-02-22T03:24:24;22.47;;;6.10;;
4756;SDS011;2392;52.578;13.426;2023-02-22T03:26:57;23.10;;;6.33;;
4756;SDS011;2392;52.578;13.426;2023-02-22T03:29:31;21.40;;;6.77;;
4756;SDS011;2392;52.578;13.426;2023-02-22T03:32:02;16.07;;;6.43;;
4756;SDS011;2392;52.578;13.426;2023-02-22T03:34:36;15.83;;;5.30;;
4756;SDS011;2392;52.578;13.426;2023-02-22T03:37:09;18.13;;;5.97;;
4756;SDS011;2392;52.578;13.426;2023-02-22T03:39:43;26.60;;;5.97;;
4756;SDS011;2392;52.578;13.426;2023-02-22T03:42:14;23.77;;;6.90;;
4756;SDS011;2392;52.578;13.426;2023-02-22T03:44:46;12.73;;;6.30;;
4756;SDS011;2392;52.578;13.426;2023-02-22T03:47:15;19.57;;;6.70;;
4756;SDS011;2392;52.578;13.426;2023-02-22T03:49:52;17.07;;;5.73;;
4756;SDS011;2392;52.578;13.426;2023-02-22T03:52:23;15.20;;;4.87;;
4756;SDS011;2392;52.578;13.426;2023-02-22T03:54:51;14.73;;;5.20;;
4756;SDS011;2392;52.578;13.426;2023-02-22T03:57:20;9.77;;;3.80;;
4756;SDS011;2392;52.578;13.426;2023-02-22T04:00:00;20.00;;;6.10;;
4756;SDS011;2392;52.578;13.426;2023-02-22T04:02:38;16.43;;;5.73;;
4756;SDS011;2392;52.578;13.426;2023-02-22T04:05:11;21.80;;;6.13;;
4756;SDS011;2392;52.578;13.426;2023-02-22T04:07:39;14.67;;;4.67;;
4756;SDS011;2392;52.578;13.426;2023-02-22T04:10:06;25.30;;;7.00;;
4756;SDS011;2392;52.578;13.426;2023-02-22T04:12:33;17.13;;;5.77;;
4756;SDS011;2392;52.578;13.426;2023-02-22T04:15:03;21.73;;;5.90;;
4756;SDS011;2392;52.578;13.426;2023-02-22T04:17:32;18.10;;;5.97;;
4756;SDS011;2392;52.578;13.426;2023-02-22T04:20:00;9.47;;;5.43;;
4756;SDS011;2392;52.578;13.426;2023-02-22T04:22:37;17.90;;;6.00;;
4756;SDS011;2392;52.578;13.426;2023-02-22T04:25:04;25.07;;;6.60;;
4756;SDS011;2392;52.578;13.426;2023-02-22T04:27:31;22.00;;;6.67;;
4756;SDS011;2392;52.578;13.426;2023-02-22T04:29:59;32.97;;;5.23;;
4756;SDS011;2392;52.578;13.426;2023-02-22T04:32:28;20.13;;;5.73;;
4756;SDS011;2392;52.578;13.426;2023-02-22T04:34:55;17.53;;;4.63;;
4756;SDS011;2392;52.578;13.426;2023-02-22T04:37:22;16.37;;;4.80;;
4756;SDS011;2392;52.578;13.426;2023-02-22T04:39:52;17.57;;;5.83;;
4756;SDS011;2392;52.578;13.426;2023-02-22T04:42:19;24.70;;;5.67;;
4756;SDS011;2392;52.578;13.426;2023-02-22T04:44:46;21.10;;;5.83;;
4756;SDS011;2392;52.578;13.426;2023-02-22T04:47:15;14.13;;;5.43;;
4756;SDS011;2392;52.578;13.426;2023-02-22T04:49:42;17.93;;;4.90;;
4756;SDS011;2392;52.578;13.426;2023-02-22T04:52:09;23.40;;;4.60;;
4756;SDS011;2392;52.578;13.426;2023-02-22T04:54:38;13.03;;;4.50;;
4756;SDS011;2392;52.578;13.426;2023-02-22T04:57:06;26.37;;;5.63;;
4756;SDS011;2392;52.578;13.426;2023-02-22T04:59:33;17.07;;;5.77;;
4756;SDS011;2392;52.578;13.426;2023-02-22T05:02:00;18.77;;;5.80;;
4756;SDS011;2392;52.578;13.426;2023-02-22T05:04:27;19.30;;;7.17;;
4756;SDS011;2392;52.578;13.426;2023-02-22T05:06:54;25.37;;;7.70;;
4756;SDS011;2392;52.578;13.426;2023-02-22T05:09:21;21.33;;;6.93;;
4756;SDS011;2392;52.578;13.426;2023-02-22T05:11:48;14.53;;;5.70;;
4756;SDS011;2392;52.578;13.426;2023-02-22T05:14:17;32.53;;;7.30;;
4756;SDS011;2392;52.578;13.426;2023-02-22T05:16:44;22.60;;;9.30;;
4756;SDS011;2392;52.578;13.426;2023-02-22T05:19:11;16.57;;;6.00;;
4756;SDS011;2392;52.578;13.426;2023-02-22T05:21:38;23.00;;;6.40;;
4756;SDS011;2392;52.578;13.426;2023-02-22T05:24:05;22.50;;;6.53;;
4756;SDS011;2392;52.578;13.426;2023-02-22T05:26:32;26.33;;;7.57;;
4756;SDS011;2392;52.578;13.426;2023-02-22T05:28:59;19.90;;;6.20;;
4756;SDS011;2392;52.578;13.426;2023-02-22T05:31:27;18.83;;;6.60;;
4756;SDS011;2392;52.578;13.426;2023-02-22T05:33:54;30.03;;;6.00;;
4756;SDS011;2392;52.578;13.426;2023-02-22T05:36:22;23.30;;;5.70;;
4756;SDS011;2392;52.578;13.426;2023-02-22T05:38:49;26.03;;;5.60;;
4756;SDS011;2392;52.578;13.426;2023-02-22T05:41:16;15.40;;;5.90;;
4756;SDS011;2392;52.578;13.426;2023-02-22T05:43:43;22.67;;;5.40;;
4756;SDS011;2392;52.578;13.426;2023-02-22T05:46:10;24.87;;;5.70;;
4756;SDS011;2392;52.578;13.426;2023-02-22T05:48:38;20.97;;;5.93;;
4756;SDS011;2392;52.578;13.426;2023-02-22T05:51:05;21.10;;;6.30;;
4756;SDS011;2392;52.578;13.426;2023-02-22T05:53:33;17.00;;;4.87;;
4756;SDS011;2392;52.578;13.426;2023-02-22T05:56:00;19.90;;;5.20;;
4756;SDS011;2392;52.578;13.426;2023-02-22T05:58:29;31.97;;;6.47;;
4756;SDS011;2392;52.578;13.426;2023-02-22T06:00:56;29.47;;;7.60;;
4756;SDS011;2392;52.578;13.426;2023-02-22T06:03:23;24.70;;;7.90;;
4756;SDS011;2392;52.578;13.426;2023-02-22T06:05:52;21.10;;;7.83;;
4756;SDS011;2392;52.578;13.426;2023-02-22T06:08:19;30.93;;;7.90;;
4756;SDS011;2392;52.578;13.426;2023-02-22T06:10:45;35.13;;;6.80;;
4756;SDS011;2392;52.578;13.426;2023-02-22T06:13:13;20.43;;;6.27;;
4756;SDS011;2392;52.578;13.426;2023-02-22T06:15:39;27.03;;;7.87;;
4756;SDS011;2392;52.578;13.426;2023-02-22T06:18:07;26.97;;;8.63;;
4756;SDS011;2392;52.578;13.426;2023-02-22T06:20:34;25.57;;;8.00;;
4756;SDS011;2392;52.578;13.426;2023-02-22T06:23:02;26.23;;;11.80;;
4756;SDS011;2392;52.578;13.426;2023-02-22T06:25:30;31.77;;;13.20;;
4756;SDS011;2392;52.578;13.426;2023-02-22T06:27:57;53.40;;;13.20;;
4756;SDS011;2392;52.578;13.426;2023-02-22T06:30:24;56.87;;;15.57;;
4756;SDS011;2392;52.578;13.426;2023-02-22T06:32:52;41.83;;;14.33;;
4756;SDS011;2392;52.578;13.426;2023-02-22T06:35:19;53.23;;;18.63;;
4756;SDS011;2392;52.578;13.426;2023-02-22T06:37:46;29.00;;;12.20;;
4756;SDS011;2392;52.578;13.426;2023-02-22T06:40:15;23.70;;;11.90;;
4756;SDS011;2392;52.578;13.426;2023-02-22T06:42:42;23.17;;;11.80;;
4756;SDS011;2392;52.578;13.426;2023-02-22T06:45:09;37.90;;;11.30;;
4756;SDS011;2392;52.578;13.426;2023-02-22T06:47:37;32.17;;;9.30;;
4756;SDS011;2392;52.578;13.426;2023-02-22T06:50:06;25.37;;;8.53;;
4756;SDS011;2392;52.578;13.426;2023-02-22T06:52:42;29.17;;;8.80;;
4756;SDS011;2392;52.578;13.426;2023-02-22T06:55:13;27.03;;;8.90;;
4756;SDS011;2392;52.578;13.426;2023-02-22T06:57:44;31.40;;;9.90;;
4756;SDS011;2392;52.578;13.426;2023-02-22T07:00:11;36.23;;;11.83;;
4756;SDS011;2392;52.578;13.426;2023-02-22T07:02:40;28.93;;;12.47;;
4756;SDS011;2392;52.578;13.426;2023-02-22T07:05:08;32.63;;;9.87;;
4756;SDS011;2392;52.578;13.426;2023-02-22T07:07:37;24.70;;;9.10;;
4756;SDS011;2392;52.578;13.426;2023-02-22T07:10:04;26.93;;;8.23;;
4756;SDS011;2392;52.578;13.426;2023-02-22T07:12:33;24.60;;;8.50;;
4756;SDS011;2392;52.578;13.426;2023-02-22T07:15:00;26.90;;;9.40;;
4756;SDS011;2392;52.578;13.426;2023-02-22T07:17:27;31.80;;;11.07;;
4756;SDS011;2392;52.578;13.426;2023-02-22T07:19:54;25.40;;;9.40;;
4756;SDS011;2392;52.578;13.426;2023-02-22T07:22:21;28.47;;;11.50;;
4756;SDS011;2392;52.578;13.426;2023-02-22T07:24:49;33.83;;;12.67;;
4756;SDS011;2392;52.578;13.426;2023-02-22T07:27:15;24.57;;;11.80;;
4756;SDS011;2392;52.578;13.426;2023-02-22T07:29:44;24.07;;;11.50;;
4756;SDS011;2392;52.578;13.426;2023-02-22T07:32:11;23.90;;;10.10;;
4756;SDS011;2392;52.578;13.426;2023-02-22T07:34:39;21.80;;;8.87;;
4756;SDS011;2392;52.578;13.426;2023-02-22T07:37:07;23.27;;;7.67;;
4756;SDS011;2392;52.578;13.426;2023-02-22T07:39:34;22.60;;;8.23;;
4756;SDS011;2392;52.578;13.426;2023-02-22T07:42:02;19.00;;;8.10;;
4756;SDS011;2392;52.578;13.426;2023-02-22T07:44:29;16.80;;;7.40;;
4756;SDS011;2392;52.578;13.426;2023-02-22T07:46:57;33.10;;;8.80;;
4756;SDS011;2392;52.578;13.426;2023-02-22T07:49:26;33.57;;;7.33;;
4756;SDS011;2392;52.578;13.426;2023-02-22T07:51:53;29.07;;;7.40;;
4756;SDS011;2392;52.578;13.426;2023-02-22T07:54:20;31.03;;;7.77;;
4756;SDS011;2392;52.578;13.426;2023-02-22T07:56:47;26.10;;;7.80;;
4756;SDS011;2392;52.578;13.426;2023-02-22T07:59:14;22.27;;;6.43;;
4756;SDS011;2392;52.578;13.426;2023-02-22T08:01:42;25.50;;;7.60;;
4756;SDS011;2392;52.578;13.426;2023-02-22T08:04:10;21.67;;;8.00;;
4756;SDS011;2392;52.578;13.426;2023-02-22T08:06:37;25.10;;;7.00;;
4756;SDS011;2392;52.578;13.426;2023-02-22T08:09:04;21.90;;;6.43;;
4756;SDS011;2392;52.578;13.426;2023-02-22T08:11:31;22.13;;;6.17;;
4756;SDS011;2392;52.578;13.426;2023-02-22T08:13:58;26.20;;;6.30;;
4756;SDS011;2392;52.578;13.426;2023-02-22T08:16:25;17.90;;;7.10;;
4756;SDS011;2392;52.578;13.426;2023-02-22T08:18:52;16.87;;;5.43;;
4756;SDS011;2392;52.578;13.426;2023-02-22T08:21:21;20.57;;;5.30;;
4756;SDS011;2392;52.578;13.426;2023-02-22T08:23:49;15.43;;;5.00;;
4756;SDS011;2392;52.578;13.426;2023-02-22T08:26:18;17.67;;;4.77;;
4756;SDS011;2392;52.578;13.426;2023-02-22T08:28:45;25.57;;;5.50;;
4756;SDS011;2392;52.578;13.426;2023-02-22T08:31:13;23.40;;;5.60;;
4756;SDS011;2392;52.578;13.426;2023-02-22T08:33:40;28.27;;;7.50;;
4756;SDS011;2392;52.578;13.426;2023-02-22T08:36:07;21.50;;;5.80;;
4756;SDS011;2392;52.578;13.426;2023-02-22T08:38:36;26.97;;;5.80;;
4756;SDS011;2392;52.578;13.426;2023-02-22T08:41:03;17.67;;;5.07;;
4756;SDS011;2392;52.578;13.426;2023-02-22T08:43:31;24.17;;;5.13;;
4756;SDS011;2392;52.578;13.426;2023-02-22T08:45:57;33.33;;;6.17;;
4756;SDS011;2392;52.578;13.426;2023-02-22T08:48:25;26.10;;;5.17;;
4756;SDS011;2392;52.578;13.426;2023-02-22T08:50:52;14.93;;;5.67;;
4756;SDS011;2392;52.578;13.426;2023-02-22T08:53:19;18.37;;;4.70;;
4756;SDS011;2392;52.578;13.426;2023-02-22T08:55:47;21.43;;;4.47;;
4756;SDS011;2392;52.578;13.426;2023-02-22T08:58:14;27.17;;;5.20;;
4756;SDS011;2392;52.578;13.426;2023-02-22T09:00:41;20.17;;;4.60;;
4756;SDS011;2392;52.578;13.426;2023-02-22T09:03:10;14.47;;;4.10;;
4756;SDS011;2392;52.578;13.426;2023-02-22T09:05:38;18.73;;;4.50;;
4756;SDS011;2392;52.578;13.426;2023-02-22T09:08:05;19.83;;;4.83;;
4756;SDS011;2392;52.578;13.426;2023-02-22T09:10:33;16.00;;;5.33;;
4756;SDS011;2392;52.578;13.426;2023-02-22T09:13:02;20.37;;;4.40;;
4756;SDS011;2392;52.578;13.426;2023-02-22T09:15:30;15.60;;;5.13;;
4756;SDS011;2392;52.578;13.426;2023-02-22T09:17:58;26.67;;;4.97;;
4756;SDS011;2392;52.578;13.426;2023-02-22T09:20:26;16.63;;;4.73;;
4756;SDS011;2392;52.578;13.426;2023-02-22T09:22:53;21.97;;;6.30;;
4756;SDS011;2392;52.578;13.426;2023-02-22T09:25:20;23.83;;;4.80;;
4756;SDS011;2392;52.578;13.426;2023-02-22T09:27:48;27.30;;;6.03;;
4756;SDS011;2392;52.578;13.426;2023-02-22T09:30:18;15.80;;;4.60;;
4756;SDS011;2392;52.578;13.426;2023-02-22T09:32:49;15.10;;;5.20;;
4756;SDS011;2392;52.578;13.426;2023-02-22T09:35:17;18.00;;;5.07;;
4756;SDS011;2392;52.578;13.426;2023-02-22T09:37:44;17.30;;;4.70;;
4756;SDS011;2392;52.578;13.426;2023-02-22T09:40:14;29.73;;;6.87;;
4756;SDS011;2392;52.578;13.426;2023-02-22T09:42:51;15.30;;;5.70;;
4756;SDS011;2392;52.578;13.426;2023-02-22T09:45:28;13.00;;;4.27;;
4756;SDS011;2392;52.578;13.426;2023-02-22T09:48:01;24.23;;;4.70;;
4756;SDS011;2392;52.578;13.426;2023-02-22T09:50:32;16.93;;;5.80;;
4756;SDS011;2392;52.578;13.426;2023-02-22T09:53:03;16.33;;;5.00;;
4756;SDS011;2392;52.578;13.426;2023-02-22T09:55:33;24.77;;;7.10;;
4756;SDS011;2392;52.578;13.426;2023-02-22T09:58:08;24.23;;;7.10;;
4756;SDS011;2392;52.578;13.426;2023-02-22T10:00:43;23.90;;;6.30;;
4756;SDS011;2392;52.578;13.426;2023-02-22T10:03:18;19.40;;;5.77;;
4756;SDS011;2392;52.578;13.426;2023-02-22T10:05:50;18.87;;;5.83;;
4756;SDS011;2392;52.578;13.426;2023-02-22T10:08:21;14.10;;;5.37;;
4756;SDS011;2392;52.578;13.426;2023-02-22T10:10:56;28.60;;;5.80;;
4756;SDS011;2392;52.578;13.426;2023-02-22T10:13:31;23.63;;;6.23;;
4756;SDS011;2392;52.578;13.426;2023-02-22T10:16:09;17.17;;;6.50;;
4756;SDS011;2392;52.578;13.426;2023-02-22T10:18:52;13.90;;;6.07;;
4756;SDS011;2392;52.578;13.426;2023-02-22T10:21:40;24.03;;;6.50;;
4756;SDS011;2392;52.578;13.426;2023-02-22T10:24:21;35.53;;;7.40;;
4756;SDS011;2392;52.578;13.426;2023-02-22T10:27:02;17.27;;;5.43;;
4756;SDS011;2392;52.578;13.426;2023-02-22T10:29:34;20.90;;;5.30;;
4756;SDS011;2392;52.578;13.426;2023-02-22T10:32:09;13.90;;;4.93;;
4756;SDS011;2392;52.578;13.426;2023-02-22T10:34:40;20.63;;;5.30;;
4756;SDS011;2392;52.578;13.426;2023-02-22T10:37:15;20.80;;;4.33;;
4756;SDS011;2392;52.578;13.426;2023-02-22T10:39:49;21.90;;;4.67;;
4756;SDS011;2392;52.578;13.426;2023-02-22T10:42:23;13.93;;;4.37;;
4756;SDS011;2392;52.578;13.426;2023-02-22T10:44:52;13.87;;;3.73;;
4756;SDS011;2392;52.578;13.426;2023-02-22T10:47:20;13.27;;;4.67;;
4756;SDS011;2392;52.578;13.426;2023-02-22T10:49:49;16.20;;;3.53;;
4756;SDS011;2392;52.578;13.426;2023-02-22T10:52:23;14.43;;;4.37;;
4756;SDS011;2392;52.578;13.426;2023-02-22T10:54:53;22.87;;;4.37;;
4756;SDS011;2392;52.578;13.426;2023-02-22T10:57:21;17.40;;;4.50;;
4756;SDS011;2392;52.578;13.426;2023-02-22T10:59:50;13.03;;;4.63;;
4756;SDS011;2392;52.578;13.426;2023-02-22T11:02:24;20.87;;;4.20;;
4756;SDS011;2392;52.578;13.426;2023-02-22T11:04:55;20.03;;;3.97;;
4756;SDS011;2392;52.578;13.426;2023-02-22T11:07:24;26.83;;;4.40;;
4756;SDS011;2392;52.578;13.426;2023-02-22T11:09:53;15.63;;;4.60;;
4756;SDS011;2392;52.578;13.426;2023-02-22T11:12:25;15.50;;;4.30;;
4756;SDS011;2392;52.578;13.426;2023-02-22T11:14:54;16.30;;;4.13;;
4756;SDS011;2392;52.578;13.426;2023-02-22T11:17:30;14.53;;;4.60;;
4756;SDS011;2392;52.578;13.426;2023-02-22T11:19:59;8.20;;;3.60;;
4756;SDS011;2392;52.578;13.426;2023-02-22T11:22:26;11.07;;;4.30;;
4756;SDS011;2392;52.578;13.426;2023-02-22T11:24:57;13.90;;;3.50;;
4756;SDS011;2392;52.578;13.426;2023-02-22T11:27:29;13.13;;;3.90;;
4756;SDS011;2392;52.578;13.426;2023-02-22T11:30:07;15.33;;;3.33;;
4756;SDS011;2392;52.578;13.426;2023-02-22T11:32:46;12.63;;;2.73;;
4756;SDS011;2392;52.578;13.426;2023-02-22T11:35:22;14.20;;;4.10;;
4756;SDS011;2392;52.578;13.426;2023-02-22T11:38:09;10.30;;;3.30;;
4756;SDS011;2392;52.578;13.426;2023-02-22T11:40:40;13.37;;;4.50;;
4756;SDS011;2392;52.578;13.426;2023-02-22T11:43:08;17.73;;;3.90;;
4756;SDS011;2392;52.578;13.426;2023-02-22T11:45:47;13.33;;;3.70;;
4756;SDS011;2392;52.578;13.426;2023-02-22T11:48:26;9.00;;;3.87;;
4756;SDS011;2392;52.578;13.426;2023-02-22T11:50:57;14.57;;;3.90;;
4756;SDS011;2392;52.578;13.426;2023-02-22T11:53:40;13.67;;;3.57;;
4756;SDS011;2392;52.578;13.426;2023-02-22T11:56:21;15.70;;;3.50;;
4756;SDS011;2392;52.578;13.426;2023-02-22T11:58:56;15.20;;;3.40;;
4756;SDS011;2392;52.578;13.426;2023-02-22T12:01:30;26.53;;;4.20;;
4756;SDS011;2392;52.578;13.426;2023-02-22T12:07:24;16.27;;;3.53;;
4756;SDS011;2392;52.578;13.426;2023-02-22T12:10:13;17.80;;;3.93;;
4756;SDS011;2392;52.578;13.426;2023-02-22T12:12:53;13.37;;;4.00;;
4756;SDS011;2392;52.578;13.426;2023-02-22T12:15:36;9.03;;;3.90;;
4756;SDS011;2392;52.578;13.426;2023-02-22T12:18:11;19.00;;;3.80;;
4756;SDS011;2392;52.578;13.426;2023-02-22T12:20:52;10.43;;;2.80;;
4756;SDS011;2392;52.578;13.426;2023-02-22T12:23:23;10.83;;;3.23;;
4756;SDS011;2392;52.578;13.426;2023-02-22T12:25:58;12.07;;;3.70;;
4756;SDS011;2392;52.578;13.426;2023-02-22T12:28:32;14.03;;;3.43;;
4756;SDS011;2392;52.578;13.426;2023-02-22T12:31:13;13.17;;;3.60;;
4756;SDS011;2392;52.578;13.426;2023-02-22T12:33:47;13.43;;;4.03;;
4756;SDS011;2392;52.578;13.426;2023-02-22T12:36:23;29.60;;;5.80;;
4756;SDS011;2392;52.578;13.426;2023-02-22T12:38:55;15.37;;;3.90;;
4756;SDS011;2392;52.578;13.426;2023-02-22T12:41:30;20.33;;;4.80;;
4756;SDS011;2392;52.578;13.426;2023-02-22T12:44:03;22.17;;;3.37;;
4756;SDS011;2392;52.578;13.426;2023-02-22T12:46:36;9.70;;;3.37;;
4756;SDS011;2392;52.578;13.426;2023-02-22T12:49:09;20.53;;;4.70;;
4756;SDS011;2392;52.578;13.426;2023-02-22T12:51:44;14.80;;;3.70;;
4756;SDS011;2392;52.578;13.426;2023-02-22T12:54:17;12.33;;;3.37;;
4756;SDS011;2392;52.578;13.426;2023-02-22T12:56:52;13.27;;;3.80;;
4756;SDS011;2392;52.578;13.426;2023-02-22T12:59:24;15.73;;;4.03;;
4756;SDS011;2392;52.578;13.426;2023-02-22T13:01:57;12.90;;;3.93;;
4756;SDS011;2392;52.578;13.426;2023-02-22T13:04:28;22.77;;;4.27;;
4756;SDS011;2392;52.578;13.426;2023-02-22T13:07:03;15.80;;;3.90;;
4756;SDS011;2392;52.578;13.426;2023-02-22T13:09:56;10.30;;;3.50;;
4756;SDS011;2392;52.578;13.426;2023-02-22T13:12:48;23.20;;;4.27;;
4756;SDS011;2392;52.578;13.426;2023-02-22T13:15:29;13.60;;;3.60;;
4756;SDS011;2392;52.578;13.426;2023-02-22T13:18:03;13.37;;;3.57;;
4756;SDS011;2392;52.578;13.426;2023-02-22T13:20:36;13.60;;;3.43;;
4756;SDS011;2392;52.578;13.426;2023-02-22T13:23:12;21.13;;;3.90;;
4756;SDS011;2392;52.578;13.426;2023-02-22T13:25:49;11.70;;;3.90;;
4756;SDS011;2392;52.578;13.426;2023-02-22T13:28:23;15.33;;;4.10;;
4756;SDS011;2392;52.578;13.426;2023-02-22T13:31:05;12.50;;;4.27;;
4756;SDS011;2392;52.578;13.426;2023-02-22T13:33:55;17.60;;;4.20;;
4756;SDS011;2392;52.578;13.426;2023-02-22T13:36:40;17.40;;;4.07;;
4756;SDS011;2392;52.578;13.426;2023-02-22T13:39:39;14.80;;;3.47;;
4756;SDS011;2392;52.578;13.426;2023-02-22T13:45:47;22.50;;;3.70;;
4756;SDS011;2392;52.578;13.426;2023-02-22T13:48:30;13.87;;;3.80;;
4756;SDS011;2392;52.578;13.426;2023-02-22T13:51:12;16.03;;;3.50;;
4756;SDS011;2392;52.578;13.426;2023-02-22T13:53:49;12.37;;;3.50;;
4756;SDS011;2392;52.578;13.426;2023-02-22T13:56:22;14.70;;;3.47;;
4756;SDS011;2392;52.578;13.426;2023-02-22T13:58:50;14.53;;;3.80;;
4756;SDS011;2392;52.578;13.426;2023-02-22T14:01:38;22.30;;;3.70;;
4756;SDS011;2392;52.578;13.426;2023-02-22T14:10:36;13.93;;;2.97;;
4756;SDS011;2392;52.578;13.426;2023-02-22T14:13:11;10.57;;;2.97;;
4756;SDS011;2392;52.578;13.426;2023-02-22T14:18:42;13.13;;;2.50;;
4756;SDS011;2392;52.578;13.426;2023-02-22T14:21:13;8.70;;;3.20;;
4756;SDS011;2392;52.578;13.426;2023-02-22T14:23:42;11.00;;;3.20;;
4756;SDS011;2392;52.578;13.426;2023-02-22T14:26:12;9.10;;;3.40;;
4756;SDS011;2392;52.578;13.426;2023-02-22T14:28:47;18.40;;;3.50;;
4756;SDS011;2392;52.578;13.426;2023-02-22T14:31:20;11.63;;;2.40;;
4756;SDS011;2392;52.578;13.426;2023-02-22T14:33:59;14.33;;;3.77;;
4756;SDS011;2392;52.578;13.426;2023-02-22T14:36:31;22.93;;;3.97;;
4756;SDS011;2392;52.578;13.426;2023-02-22T14:39:04;9.20;;;3.30;;
4756;SDS011;2392;52.578;13.426;2023-02-22T14:41:37;12.93;;;3.53;;
4756;SDS011;2392;52.578;13.426;2023-02-22T14:44:19;18.83;;;2.90;;
4756;SDS011;2392;52.578;13.426;2023-02-22T14:46:51;16.50;;;3.80;;
4756;SDS011;2392;52.578;13.426;2023-02-22T14:49:22;13.93;;;3.10;;
4756;SDS011;2392;52.578;13.426;2023-02-22T14:51:53;12.53;;;3.13;;
4756;SDS011;2392;52.578;13.426;2023-02-22T14:54:29;13.10;;;3.60;;
4756;SDS011;2392;52.578;13.426;2023-02-22T14:57:05;12.83;;;4.00;;
4756;SDS011;2392;52.578;13.426;2023-02-22T15:02:44;14.03;;;3.00;;
4756;SDS011;2392;52.578;13.426;2023-02-22T15:05:11;9.90;;;2.93;;
4756;SDS011;2392;52.578;13.426;2023-02-22T15:07:47;16.93;;;3.70;;
4756;SDS011;2392;52.578;13.426;2023-02-22T15:10:19;20.13;;;7.90;;
4756;SDS011;2392;52.578;13.426;2023-02-22T15:12:52;10.97;;;3.73;;
4756;SDS011;2392;52.578;13.426;2023-02-22T15:15:34;14.77;;;4.13;;
4756;SDS011;2392;52.578;13.426;2023-02-22T15:18:03;16.63;;;4.00;;
4756;SDS011;2392;52.578;13.426;2023-02-22T15:20:37;15.20;;;3.60;;
4756;SDS011;2392;52.578;13.426;2023-02-22T15:23:05;17.60;;;3.50;;
4756;SDS011;2392;52.578;13.426;2023-02-22T15:25:34;15.10;;;3.17;;
4756;SDS011;2392;52.578;13.426;2023-02-22T15:28:03;8.87;;;2.47;;
4756;SDS011;2392;52.578;13.426;2023-02-22T15:30:34;12.00;;;3.20;;
4756;SDS011;2392;52.578;13.426;2023-02-22T15:33:12;11.50;;;3.17;;
4756;SDS011;2392;52.578;13.426;2023-02-22T15:35:41;19.07;;;3.60;;
4756;SDS011;2392;52.578;13.426;2023-02-22T15:38:16;19.27;;;3.47;;